Time;durP1;ratioP1;P1;durP2;ratioP2;P2;SDS_P1;SDS_P2;PMS_P1;PMS_P2;Temp;Humidity;BMP_temperature;BMP_pressure;BME280_temperature;BME280_humidity;BME280_pressure;Samples;Min_cycle;Max_cycle;Signal;HPM_P1;HPM_P2
2022/10/25 00:01:44;;;;;;;45.33;33.80;;;22.90;61.90;;;;;;4861841;55;20998;-43
2022/10/25 00:06:45;;;;;;;44.45;33.72;;;22.90;61.90;;;;;;4745610;59;21026;-37
2022/10/25 00:11:45;;;;;;;41.28;32.05;;;22.90;61.90;;;;;;4745730;59;21066;-40
2022/10/25 00:16:46;;;;;;;39.47;31.50;;;22.90;61.90;;;;;;4745495;55;21468;-40
2022/10/25 00:21:47;;;;;;;41.10;32.20;;;22.90;61.80;;;;;;4744362;59;21009;-40
2022/10/25 00:26:48;;;;;;;39.38;31.35;;;22.90;61.80;;;;;;4821525;55;21082;-41
2022/10/25 00:31:48;;;;;;;40.00;31.50;;;22.80;61.80;;;;;;4781881;55;21041;-41
2022/10/25 00:36:49;;;;;;;43.50;31.48;;;22.80;61.80;;;;;;5086991;55;21014;-42
2022/10/25 00:41:50;;;;;;;41.08;31.17;;;22.90;61.90;;;;;;4744615;55;21066;-45
2022/10/25 00:46:52;;;;;;;40.75;30.52;;;22.90;61.80;;;;;;5011435;55;20990;-38
2022/10/25 00:51:57;;;;;;;39.30;30.67;;;22.80;62.30;;;;;;4878122;55;21520;-41
2022/10/25 00:57:01;;;;;;;40.28;31.37;;;22.90;61.70;;;;;;4789853;55;21104;-44
2022/10/25 01:02:01;;;;;;;36.88;28.33;;;22.80;61.70;;;;;;4815425;55;21014;-34
2022/10/25 01:07:03;;;;;;;36.85;29.83;;;22.80;61.60;;;;;;5230990;55;21057;-32
2022/10/25 01:12:04;;;;;;;38.50;29.33;;;22.80;61.70;;;;;;4745481;59;21002;-38
2022/10/25 01:20:56;;;;;;;37.35;28.70;;;22.80;61.60;;;;;;4828655;55;21038;-47
2022/10/25 01:26:20;;;;;;;37.28;28.20;;;22.80;61.60;;;;;;5230512;55;21096;-39
2022/10/25 01:31:48;;;;;;;36.72;28.45;;;22.80;61.50;;;;;;5202946;55;20976;-45
2022/10/25 01:37:32;;;;;;;37.00;29.10;;;22.80;61.50;;;;;;5112852;55;21058;-41
2022/10/25 01:42:42;;;;;;;35.28;27.33;;;22.80;61.50;;;;;;4832204;55;21050;-42
2022/10/25 01:47:48;;;;;;;35.33;27.42;;;22.80;61.60;;;;;;4745836;59;21042;-43
2022/10/25 01:52:49;;;;;;;33.47;27.37;;;22.80;61.50;;;;;;4790016;55;20994;-43
2022/10/25 02:01:06;;;;;;;36.38;26.67;;;22.80;61.40;;;;;;4904960;55;21069;-47
2022/10/25 02:08:03;;;;;;;35.67;27.10;;;22.80;61.50;;;;;;4745434;59;20998;-45
2022/10/25 02:13:32;;;;;;;36.58;27.40;;;22.80;61.40;;;;;;4890794;55;21101;-35
2022/10/25 02:18:38;;;;;;;33.83;26.50;;;22.80;61.40;;;;;;4877499;55;21556;-45
2022/10/25 02:23:39;;;;;;;34.53;26.87;;;22.80;61.40;;;;;;4998374;55;21066;-37
2022/10/25 02:28:41;;;;;;;33.67;25.27;;;22.80;61.40;;;;;;4817109;55;21046;-45
2022/10/25 02:33:46;;;;;;;30.08;24.55;;;22.80;61.40;;;;;;4745206;59;21069;-38
2022/10/25 02:38:49;;;;;;;30.50;24.48;;;22.80;61.40;;;;;;4887869;55;20986;-36
2022/10/25 02:43:50;;;;;;;31.90;24.60;;;22.80;61.40;;;;;;4745661;59;21046;-39
2022/10/25 02:48:51;;;;;;;30.02;24.25;;;22.80;61.30;;;;;;4900695;55;21001;-44
2022/10/25 02:53:51;;;;;;;31.20;24.40;;;22.80;61.40;;;;;;4846503;55;21481;-40
2022/10/25 02:58:55;;;;;;;29.45;23.17;;;22.80;61.40;;;;;;4745357;59;21125;-44
2022/10/25 03:03:56;;;;;;;27.95;23.27;;;22.80;61.20;;;;;;5199555;55;21037;-40
2022/10/25 03:08:57;;;;;;;29.35;23.90;;;22.80;61.20;;;;;;5050580;55;21054;-43
2022/10/25 03:13:58;;;;;;;30.95;24.50;;;22.80;61.20;;;;;;4785160;55;21587;-36
2022/10/25 03:18:59;;;;;;;30.15;23.87;;;22.80;61.20;;;;;;4997865;55;21013;-41
2022/10/25 03:23:59;;;;;;;29.27;23.17;;;22.80;61.10;;;;;;5029502;55;20978;-42
2022/10/25 03:29:00;;;;;;;28.95;22.77;;;22.80;61.10;;;;;;5231000;55;20997;-49
2022/10/25 03:34:01;;;;;;;30.80;22.62;;;22.80;61.10;;;;;;4800611;55;21037;-44
2022/10/25 03:39:02;;;;;;;28.35;22.35;;;22.80;61.10;;;;;;4858139;55;21053;-41
2022/10/25 03:44:03;;;;;;;29.45;23.12;;;22.80;61.00;;;;;;4805250;55;21488;-40
2022/10/25 03:49:04;;;;;;;27.95;21.65;;;22.80;61.00;;;;;;4745793;59;21030;-41
2022/10/25 03:54:05;;;;;;;30.67;22.13;;;22.70;60.80;;;;;;4806058;55;21046;-35
2022/10/25 03:59:06;;;;;;;30.30;21.62;;;22.70;60.70;;;;;;4922763;55;21058;-40
2022/10/25 04:04:06;;;;;;;25.95;21.10;;;22.80;60.80;;;;;;4904920;55;21021;-49
2022/10/25 04:09:08;;;;;;;29.40;21.75;;;22.80;60.60;;;;;;4745348;59;20995;-38
2022/10/25 04:14:08;;;;;;;28.70;21.27;;;22.80;60.60;;;;;;4820743;55;20986;-41
2022/10/25 04:19:09;;;;;;;29.15;21.48;;;22.70;60.50;;;;;;4751730;55;21057;-46
2022/10/25 04:24:10;;;;;;;27.83;20.90;;;22.70;60.50;;;;;;4787773;55;21058;-38
2022/10/25 04:29:11;;;;;;;25.85;19.83;;;22.70;60.40;;;;;;4745951;55;21006;-42
2022/10/25 04:34:12;;;;;;;25.98;20.48;;;22.70;60.40;;;;;;4895986;55;21532;-41
2022/10/25 04:39:13;;;;;;;28.15;19.70;;;22.70;60.40;;;;;;4745110;59;21014;-39
2022/10/25 04:44:14;;;;;;;25.85;19.75;;;22.70;60.30;;;;;;4745263;59;21065;-46
2022/10/25 04:49:15;;;;;;;24.95;19.12;;;22.70;60.30;;;;;;4901876;55;21097;-40
2022/10/25 04:54:16;;;;;;;24.37;19.20;;;22.70;60.20;;;;;;4813918;55;21515;-48
2022/10/25 04:59:16;;;;;;;24.83;20.40;;;22.80;60.20;;;;;;4745038;59;21002;-45
2022/10/25 05:04:17;;;;;;;26.73;20.50;;;22.80;60.20;;;;;;4852851;55;21057;-42
2022/10/25 05:09:18;;;;;;;23.98;19.12;;;22.70;60.10;;;;;;4788704;55;21089;-39
2022/10/25 05:14:19;;;;;;;24.75;18.87;;;22.80;60.10;;;;;;4820289;55;21045;-35
2022/10/25 05:19:20;;;;;;;28.20;19.55;;;22.70;60.00;;;;;;4744969;59;21065;-45
2022/10/25 05:24:20;;;;;;;25.42;19.27;;;22.80;59.90;;;;;;5043513;55;21050;-43
2022/10/25 05:29:21;;;;;;;23.33;18.00;;;22.70;59.90;;;;;;5058674;55;21058;-42
2022/10/25 05:34:22;;;;;;;24.98;18.00;;;22.70;59.80;;;;;;4745077;59;21013;-44
2022/10/25 05:39:23;;;;;;;23.48;18.23;;;22.70;59.80;;;;;;4763812;55;21512;-45
2022/10/25 05:44:24;;;;;;;22.80;18.30;;;22.70;60.40;;;;;;4744972;59;21537;-50
2022/10/25 05:49:25;;;;;;;25.00;18.67;;;22.70;59.70;;;;;;4938390;55;21137;-46
2022/10/25 05:54:25;;;;;;;25.25;18.73;;;22.70;59.60;;;;;;4823468;55;21097;-42
2022/10/25 05:59:26;;;;;;;22.90;18.70;;;22.70;59.60;;;;;;4744754;59;21062;-47
2022/10/25 06:04:27;;;;;;;25.27;18.67;;;22.70;59.60;;;;;;5037769;55;21070;-44
2022/10/25 06:09:28;;;;;;;25.20;18.50;;;22.70;59.50;;;;;;4886109;55;21069;-41
2022/10/25 06:14:28;;;;;;;25.85;18.67;;;22.70;59.50;;;;;;4796600;55;21005;-47
2022/10/25 06:19:29;;;;;;;24.25;18.00;;;22.80;59.50;;;;;;4744594;59;21013;-41
2022/10/25 06:24:30;;;;;;;24.00;17.75;;;22.70;59.50;;;;;;4745192;56;21043;-42
2022/10/25 06:29:31;;;;;;;24.90;18.30;;;22.70;59.40;;;;;;4745137;59;21499;-42
2022/10/25 06:34:32;;;;;;;23.45;18.30;;;22.70;59.40;;;;;;4756852;55;21065;-42
2022/10/25 06:39:33;;;;;;;25.27;19.12;;;22.70;59.40;;;;;;4744546;59;21002;-44
2022/10/25 06:44:33;;;;;;;23.55;17.73;;;22.70;59.30;;;;;;4750942;55;21069;-45
2022/10/25 06:49:34;;;;;;;25.10;18.00;;;22.70;59.30;;;;;;4827179;55;21053;-47
2022/10/25 06:54:35;;;;;;;27.58;18.80;;;22.80;59.40;;;;;;4745319;55;21520;-36
2022/10/25 06:59:36;;;;;;;24.23;18.70;;;22.70;59.30;;;;;;4798134;55;21092;-49
2022/10/25 07:04:36;;;;;;;28.02;20.33;;;22.70;59.20;;;;;;4743565;59;21461;-29
2022/10/25 07:09:37;;;;;;;28.25;20.02;;;22.80;59.00;;;;;;4743688;59;21543;-49
2022/10/25 07:14:38;;;;;;;26.30;19.48;;;22.80;58.80;;;;;;4769816;55;21014;-43
2022/10/25 07:19:39;;;;;;;30.48;21.30;;;22.90;58.70;;;;;;4826372;55;21070;-38
2022/10/25 07:24:40;;;;;;;33.30;21.50;;;22.90;58.80;;;;;;4770519;55;21098;-40
2022/10/25 07:29:41;;;;;;;34.83;23.02;;;22.90;58.90;;;;;;4744939;59;21065;-32
2022/10/25 07:34:41;;;;;;;32.25;23.38;;;23.00;59.00;;;;;;4765079;55;21014;-41
2022/10/25 07:39:42;;;;;;;39.05;25.58;;;23.00;59.30;;;;;;4797524;55;21464;-38
2022/10/25 07:44:43;;;;;;;44.35;27.48;;;23.00;59.10;;;;;;4845668;55;21544;-37
2022/10/25 07:49:44;;;;;;;40.78;27.55;;;23.10;59.20;;;;;;4827865;55;21148;-38
2022/10/25 07:54:45;;;;;;;46.83;29.42;;;23.10;59.20;;;;;;4745706;59;21014;-38
2022/10/25 07:59:45;;;;;;;48.25;31.83;;;23.10;59.00;;;;;;4840606;55;21098;-37
2022/10/25 08:04:46;;;;;;;47.70;32.05;;;23.20;59.20;;;;;;4767455;55;21014;-40
2022/10/25 08:09:47;;;;;;;45.60;32.75;;;23.20;59.20;;;;;;4869527;55;21572;-41
2022/10/25 08:14:48;;;;;;;57.55;35.67;;;23.20;59.20;;;;;;4789977;55;21066;-41
2022/10/25 08:19:48;;;;;;;51.88;34.70;;;23.20;59.20;;;;;;4744852;59;21037;-36
2022/10/25 08:24:49;;;;;;;54.47;36.40;;;23.30;59.20;;;;;;4769816;55;21081;-33
2022/10/25 08:29:50;;;;;;;54.53;38.35;;;23.30;59.30;;;;;;5105433;55;21512;-38
2022/10/25 08:34:51;;;;;;;54.67;37.30;;;23.30;59.10;;;;;;4767344;55;21074;-31
2022/10/25 08:39:52;;;;;;;58.67;41.53;;;23.30;59.30;;;;;;4847162;55;20985;-36
2022/10/25 08:46:31;;;;;;;56.85;40.42;;;23.30;59.30;;;;;;4816669;55;21054;-33
2022/10/25 08:51:37;;;;;;;60.17;40.90;;;23.40;59.40;;;;;;4786782;55;20990;-35
2022/10/25 08:56:38;;;;;;;62.88;42.38;;;23.40;59.40;;;;;;4907982;55;21062;-30
2022/10/25 09:01:52;;;;;;;62.08;43.80;;;23.40;59.20;;;;;;4744451;59;21069;-35
2022/10/25 09:10:43;;;;;;;65.57;44.30;;;23.40;59.10;;;;;;4759531;55;21062;-37
2022/10/25 09:16:49;;;;;;;64.35;44.85;;;23.30;58.80;;;;;;4816067;55;20999;-36
2022/10/25 09:22:01;;;;;;;63.92;45.30;;;23.30;58.80;;;;;;4743855;59;20999;-38
2022/10/25 09:29:43;;;;;;;62.50;45.70;;;23.30;58.90;;;;;;4860314;55;21089;-35
2022/10/25 09:34:44;;;;;;;67.78;45.83;;;23.30;59.10;;;;;;4743734;59;21325;-44
2022/10/25 09:39:51;;;;;;;65.18;46.42;;;23.30;59.20;;;;;;4766034;55;21014;-31
2022/10/25 09:45:06;;;;;;;64.37;46.97;;;23.30;59.30;;;;;;4761047;55;20990;-36
2022/10/25 09:52:09;;;;;;;68.20;47.42;;;23.30;59.40;;;;;;4863039;55;21046;-35
2022/10/25 09:57:10;;;;;;;69.32;46.53;;;23.30;59.50;;;;;;4749919;55;20997;-45
2022/10/25 10:02:17;;;;;;;67.45;47.00;;;23.30;59.60;;;;;;4791185;55;21010;-38
2022/10/25 10:07:36;;;;;;;65.57;47.42;;;23.40;59.80;;;;;;4744180;59;21061;-47
2022/10/25 10:15:53;;;;;;;68.07;47.65;;;23.30;59.60;;;;;;4747272;55;21054;-41
2022/10/25 10:21:17;;;;;;;74.87;50.60;;;23.30;58.80;;;;;;4761651;55;21006;-40
2022/10/25 10:26:34;;;;;;;74.40;49.05;;;23.30;58.40;;;;;;4744453;59;21050;-47
2022/10/25 10:31:36;;;;;;;;;;;23.20;58.20;;;;;;5055875;55;21002;-29
2022/10/25 10:36:37;;;;;;;75.95;48.20;;;23.30;58.40;;;;;;4966094;55;20270;-32
2022/10/25 10:42:02;;;;;;;74.55;48.08;;;23.20;58.20;;;;;;4744167;59;21081;-36
2022/10/25 10:47:11;;;;;;;68.37;44.85;;;23.30;58.50;;;;;;4748860;55;21071;-33
2022/10/25 10:52:39;;;;;;;67.30;43.90;;;23.30;58.40;;;;;;4772753;55;21457;-34
2022/10/25 10:57:42;;;;;;;69.12;45.08;;;23.30;58.50;;;;;;4743486;55;21087;-32
2022/10/25 11:02:45;;;;;;;72.72;47.35;;;23.30;58.60;;;;;;4763474;55;21034;-37
2022/10/25 11:07:57;;;;;;;67.37;45.83;;;23.30;58.50;;;;;;4744977;59;21046;-36
2022/10/25 11:13:17;;;;;;;72.30;45.63;;;23.30;58.50;;;;;;4804964;55;21532;-37
2022/10/25 11:19:10;;;;;;;72.50;49.10;;;23.30;58.70;;;;;;5095685;55;21010;-36
2022/10/25 11:24:45;;;;;;;100.03;66.10;;;23.40;58.80;;;;;;4881306;55;21018;-44
2022/10/25 11:30:37;;;;;;;115.70;76.78;;;23.40;58.90;;;;;;4774930;55;21583;-47
2022/10/25 11:37:14;;;;;;;116.55;81.10;;;23.40;58.90;;;;;;4804650;55;21066;-30
2022/10/25 11:42:55;;;;;;;125.35;83.32;;;23.40;58.70;;;;;;4853439;55;21669;-32
2022/10/25 11:48:28;;;;;;;122.25;85.15;;;23.40;58.70;;;;;;4817050;55;21054;-30
2022/10/25 11:54:03;;;;;;;119.47;81.55;;;23.40;58.90;;;;;;4762666;55;21014;-38
2022/10/25 11:59:36;;;;;;;113.57;78.25;;;23.30;58.80;;;;;;4827566;55;21010;-39
2022/10/25 12:05:07;;;;;;;117.70;81.18;;;23.40;58.90;;;;;;4745700;55;21042;-44
2022/10/25 12:10:46;;;;;;;120.45;77.40;;;23.30;58.80;;;;;;4833543;55;21002;-35
2022/10/25 12:15:49;;;;;;;102.10;71.85;;;23.30;58.80;;;;;;4791507;55;21041;-45
2022/10/25 12:20:52;;;;;;;100.05;71.50;;;23.30;59.30;;;;;;4792983;55;21081;-40
2022/10/25 12:25:59;;;;;;;95.43;69.07;;;23.40;59.50;;;;;;4744871;59;21033;-42
2022/10/25 12:31:56;;;;;;;99.95;67.00;;;23.50;59.80;;;;;;4752417;55;21065;-45
2022/10/25 12:37:06;;;;;;;95.12;66.32;;;23.50;60.00;;;;;;4766138;55;21061;-35
2022/10/25 12:42:40;;;;;;;89.10;62.70;;;23.50;60.10;;;;;;4871301;55;21006;-40
2022/10/25 12:48:26;;;;;;;84.93;59.63;;;23.50;60.20;;;;;;4782772;55;21042;-39
2022/10/25 12:54:36;;;;;;;85.20;62.08;;;23.60;60.50;;;;;;4877519;55;21026;-31
2022/10/25 13:00:32;;;;;;;79.03;57.53;;;23.60;60.60;;;;;;4745314;59;20998;-41
2022/10/25 13:07:47;;;;;;;77.97;55.40;;;23.60;60.70;;;;;;4780980;55;21074;-43
2022/10/25 13:13:15;;;;;;;70.25;52.67;;;23.70;60.70;;;;;;4761434;55;21109;-33
2022/10/25 13:23:19;;;;;;;78.47;54.22;;;23.70;60.70;;;;;;4744878;59;21026;-46
2022/10/25 13:28:29;;;;;;;74.63;52.47;;;23.70;60.70;;;;;;4745390;59;21583;-43
2022/10/25 13:33:32;;;;;;;71.22;50.95;;;23.70;60.70;;;;;;4860062;55;21011;-48
2022/10/25 13:38:36;;;;;;;72.15;49.78;;;23.60;60.40;;;;;;4758946;55;21634;-28
2022/10/25 13:44:01;;;;;;;71.30;47.30;;;23.70;60.40;;;;;;4744314;59;21166;-35
2022/10/25 13:49:23;;;;;;;66.30;47.70;;;23.70;60.40;;;;;;4804766;55;20986;-27
2022/10/25 13:54:29;;;;;;;65.40;44.95;;;23.80;60.50;;;;;;4762919;55;21575;-34
2022/10/25 14:01:08;;;;;;;60.72;42.42;;;23.70;60.50;;;;;;4744023;59;21015;-42
2022/10/25 14:06:10;;;;;;;55.42;39.70;;;23.80;60.60;;;;;;4787159;55;21581;-38
2022/10/25 14:11:22;;;;;;;51.65;37.80;;;23.80;60.40;;;;;;4745450;59;21058;-43
2022/10/25 14:16:29;;;;;;;54.25;36.53;;;23.80;60.40;;;;;;4875660;55;21063;-40
2022/10/25 14:21:31;;;;;;;52.35;36.10;;;23.80;60.30;;;;;;4817146;55;21050;-45
2022/10/25 14:26:31;;;;;;;49.40;35.78;;;23.80;60.20;;;;;;4830278;55;21097;-38
2022/10/25 14:31:32;;;;;;;49.13;35.63;;;23.70;61.10;;;;;;4758924;55;21062;-43
2022/10/25 14:36:35;;;;;;;47.75;34.53;;;23.70;61.90;;;;;;4779168;55;21606;-47
2022/10/25 14:41:36;;;;;;;49.03;33.85;;;23.60;62.10;;;;;;4742395;55;21617;-40
2022/10/25 14:46:43;;;;;;;44.58;34.30;;;23.50;62.70;;;;;;4795918;55;20995;-43
2022/10/25 14:51:45;;;;;;;47.60;33.85;;;23.50;63.20;;;;;;4835327;55;21530;-37
2022/10/25 14:56:53;;;;;;;43.13;33.30;;;23.50;63.00;;;;;;4746162;59;20995;-45
2022/10/25 15:02:01;;;;;;;43.35;32.10;;;23.50;63.00;;;;;;5070442;55;21059;-45
2022/10/25 15:07:02;;;;;;;44.65;34.25;;;23.40;63.30;;;;;;4755083;55;21006;-41
2022/10/25 15:12:15;;;;;;;42.40;32.65;;;23.40;63.40;;;;;;4795105;55;21050;-46
2022/10/25 15:17:28;;;;;;;43.47;31.95;;;23.30;63.40;;;;;;4840993;55;21495;-39
2022/10/25 15:23:30;;;;;;;42.47;31.42;;;23.30;63.40;;;;;;5079396;55;21074;-45
2022/10/25 15:28:49;;;;;;;42.72;31.62;;;23.30;63.50;;;;;;4825622;55;21543;-44
2022/10/25 15:34:01;;;;;;;40.00;31.62;;;23.30;63.60;;;;;;4792584;55;21050;-41
2022/10/25 15:39:27;;;;;;;42.00;31.37;;;23.30;63.60;;;;;;4745497;59;21041;-46
2022/10/25 15:44:27;;;;;;;39.72;31.40;;;23.30;63.60;;;;;;4773761;55;21022;-38
2022/10/25 15:49:29;;;;;;;39.95;31.30;;;23.30;63.80;;;;;;4770997;55;20998;-39
2022/10/25 15:54:30;;;;;;;40.47;31.33;;;23.30;63.80;;;;;;4745410;59;21063;-46
2022/10/25 15:59:30;;;;;;;37.67;29.73;;;23.30;63.80;;;;;;4852391;55;21499;-44
2022/10/25 16:04:31;;;;;;;39.95;30.77;;;23.30;63.70;;;;;;4800246;55;21069;-41
2022/10/25 16:09:32;;;;;;;35.38;29.33;;;23.20;63.80;;;;;;4798272;55;21002;-45
2022/10/25 16:14:34;;;;;;;37.72;28.17;;;23.20;64.40;;;;;;4845595;55;21018;-44
2022/10/25 16:19:34;;;;;;;39.97;29.12;;;23.20;63.80;;;;;;4753448;55;21070;-37
2022/10/25 16:24:35;;;;;;;41.88;30.08;;;23.20;63.80;;;;;;4745145;59;21021;-42
2022/10/25 16:29:36;;;;;;;38.28;28.80;;;23.20;64.40;;;;;;4792811;55;21049;-41
2022/10/25 16:34:37;;;;;;;41.15;30.17;;;23.20;63.80;;;;;;4878729;55;21626;-43
2022/10/25 16:39:37;;;;;;;37.20;29.30;;;23.20;63.70;;;;;;5078600;55;21129;-37
2022/10/25 16:44:38;;;;;;;33.95;27.23;;;23.20;63.60;;;;;;5094309;55;21001;-44
2022/10/25 16:49:39;;;;;;;39.05;27.83;;;23.20;63.70;;;;;;5102165;55;21014;-46
2022/10/25 16:54:40;;;;;;;35.58;27.50;;;23.20;63.60;;;;;;4868588;55;21061;-46
2022/10/25 16:59:41;;;;;;;34.70;27.83;;;23.20;63.70;;;;;;4865274;55;21070;-44
2022/10/25 17:04:42;;;;;;;36.45;28.40;;;23.10;63.70;;;;;;4745053;56;20994;-46
2022/10/25 17:09:43;;;;;;;33.72;26.62;;;23.20;63.80;;;;;;4764203;55;21031;-33
2022/10/25 17:14:44;;;;;;;33.83;26.85;;;23.20;63.60;;;;;;4795068;55;21061;-33
2022/10/25 17:19:45;;;;;;;34.72;27.45;;;23.20;63.70;;;;;;5052973;55;21014;-30
2022/10/25 17:24:45;;;;;;;37.33;27.00;;;23.20;63.70;;;;;;4744506;59;21054;-29
2022/10/25 17:29:46;;;;;;;32.50;25.92;;;23.10;63.50;;;;;;4805588;55;21559;-38
2022/10/25 17:34:47;;;;;;;32.95;26.15;;;23.10;63.70;;;;;;4887017;55;21097;-34
2022/10/25 17:39:48;;;;;;;30.37;24.77;;;23.20;63.60;;;;;;4833704;55;21144;-41
2022/10/25 17:44:48;;;;;;;32.35;25.73;;;23.10;63.60;;;;;;4745308;59;20990;-43
2022/10/25 17:49:49;;;;;;;32.85;25.27;;;23.10;63.50;;;;;;4751829;55;21062;-43
2022/10/25 17:54:50;;;;;;;35.35;25.98;;;23.10;63.50;;;;;;4880320;55;21633;-41
2022/10/25 17:59:51;;;;;;;31.90;24.85;;;23.20;63.60;;;;;;4746114;55;21066;-42
2022/10/25 18:04:52;;;;;;;28.45;23.40;;;23.10;63.40;;;;;;4831907;55;21097;-43
2022/10/25 18:09:53;;;;;;;29.50;24.05;;;23.10;63.40;;;;;;4828700;55;21078;-37
2022/10/25 18:14:54;;;;;;;32.05;25.90;;;23.10;63.50;;;;;;4762832;55;21002;-42
2022/10/25 18:19:54;;;;;;;31.62;24.15;;;23.10;63.40;;;;;;5177020;55;21022;-38
2022/10/25 18:24:55;;;;;;;30.27;24.08;;;23.10;63.50;;;;;;5218823;55;21086;-38
2022/10/25 18:29:56;;;;;;;29.20;22.77;;;23.10;63.40;;;;;;4820158;55;21470;-40
2022/10/25 18:34:57;;;;;;;30.08;24.50;;;23.10;63.40;;;;;;4789851;55;21071;-49
2022/10/25 18:39:57;;;;;;;29.17;24.30;;;23.10;63.40;;;;;;4946228;55;21061;-39
2022/10/25 18:44:58;;;;;;;29.90;24.08;;;23.10;63.30;;;;;;4783347;55;21077;-45
2022/10/25 18:49:59;;;;;;;30.60;24.05;;;23.10;63.40;;;;;;5029686;55;21053;-45
2022/10/25 18:55:00;;;;;;;29.50;23.92;;;23.10;63.20;;;;;;4833343;55;21005;-44
2022/10/25 19:00:01;;;;;;;30.98;23.95;;;23.10;63.20;;;;;;4901924;55;21021;-45
2022/10/25 19:05:03;;;;;;;29.08;23.67;;;23.10;63.20;;;;;;4797668;55;20998;-42
2022/10/25 19:10:04;;;;;;;29.58;24.35;;;23.10;63.20;;;;;;4796900;55;20978;-42
2022/10/25 19:15:06;;;;;;;31.23;24.37;;;23.10;63.10;;;;;;4792371;55;21608;-42
2022/10/25 19:20:08;;;;;;;29.50;23.45;;;23.10;63.10;;;;;;4745075;59;20999;-43
2022/10/25 19:25:09;;;;;;;31.10;24.75;;;23.10;63.20;;;;;;4802206;55;21070;-32
2022/10/25 19:30:11;;;;;;;29.92;23.50;;;23.10;63.10;;;;;;4913747;55;20998;-35
2022/10/25 19:35:13;;;;;;;31.20;24.25;;;23.10;63.00;;;;;;5096469;55;20998;-44
2022/10/25 19:40:14;;;;;;;29.85;24.40;;;23.10;63.10;;;;;;4745599;55;21511;-43
2022/10/25 19:45:15;;;;;;;31.73;24.65;;;23.10;62.90;;;;;;4856950;55;21024;-32
2022/10/25 19:50:16;;;;;;;33.15;24.15;;;23.10;63.10;;;;;;5096297;55;21509;-30
2022/10/25 19:55:17;;;;;;;32.47;24.42;;;23.10;62.90;;;;;;4790199;55;20986;-44
2022/10/25 20:00:18;;;;;;;32.45;25.42;;;23.10;63.00;;;;;;4886060;55;21066;-35
2022/10/25 20:05:18;;;;;;;29.40;23.98;;;23.00;62.80;;;;;;5022304;55;20981;-39
2022/10/25 20:10:19;;;;;;;27.48;22.80;;;23.00;62.90;;;;;;5093827;55;20982;-40
2022/10/25 20:15:20;;;;;;;29.42;23.33;;;23.00;62.80;;;;;;5231386;55;20994;-31
2022/10/25 20:20:21;;;;;;;30.25;23.83;;;23.00;62.80;;;;;;4895989;55;21471;-44
2022/10/25 20:25:22;;;;;;;32.90;23.25;;;23.00;62.90;;;;;;4877036;55;21073;-48
2022/10/25 20:30:23;;;;;;;29.63;23.42;;;23.00;62.80;;;;;;4918548;55;21046;-32
2022/10/25 20:35:25;;;;;;;28.60;23.52;;;23.00;62.80;;;;;;4779816;55;21559;-30
2022/10/25 20:40:25;;;;;;;30.25;23.35;;;23.00;62.80;;;;;;4821924;55;21615;-33
2022/10/25 20:45:28;;;;;;;30.52;24.12;;;23.00;62.70;;;;;;5230809;55;21045;-37
2022/10/25 20:50:29;;;;;;;30.58;23.75;;;23.00;62.70;;;;;;4902429;55;20962;-41
2022/10/25 20:55:30;;;;;;;30.62;23.85;;;23.00;62.70;;;;;;4745855;59;21074;-43
2022/10/25 21:00:31;;;;;;;29.05;23.17;;;23.00;62.70;;;;;;4852199;55;21147;-37
2022/10/25 21:05:32;;;;;;;32.85;24.77;;;23.00;62.70;;;;;;4797851;55;21552;-33
2022/10/25 21:10:35;;;;;;;29.92;23.38;;;23.00;62.70;;;;;;4757009;55;21062;-33
2022/10/25 21:15:36;;;;;;;28.58;23.20;;;23.10;62.70;;;;;;5148019;55;21559;-39
2022/10/25 21:20:36;;;;;;;31.67;24.08;;;23.00;62.60;;;;;;4792125;55;21139;-42
2022/10/25 21:25:38;;;;;;;32.67;24.05;;;23.00;62.60;;;;;;4821086;55;21138;-30
2022/10/25 21:30:38;;;;;;;30.83;23.52;;;23.00;62.60;;;;;;4745565;55;21006;-30
2022/10/25 21:35:39;;;;;;;30.10;23.60;;;23.00;62.50;;;;;;4769523;55;20982;-44
2022/10/25 21:40:40;;;;;;;29.48;23.27;;;23.00;62.50;;;;;;4930098;55;21073;-43
2022/10/25 21:45:41;;;;;;;28.12;22.85;;;23.00;62.50;;;;;;4855722;55;21511;-44
2022/10/25 21:50:41;;;;;;;27.62;22.35;;;23.00;62.50;;;;;;4775295;55;21609;-40
2022/10/25 21:55:42;;;;;;;30.62;23.83;;;23.00;62.50;;;;;;5036932;55;21093;-42
2022/10/25 22:00:43;;;;;;;26.42;21.75;;;23.00;62.50;;;;;;5230670;55;21089;-31
2022/10/25 22:05:44;;;;;;;29.30;23.23;;;23.00;62.40;;;;;;4745713;59;21260;-39
2022/10/25 22:10:54;;;;;;;30.05;22.65;;;23.00;62.40;;;;;;4842190;55;21014;-40
2022/10/25 22:16:11;;;;;;;29.17;24.15;;;23.00;62.40;;;;;;5230646;55;21085;-42
2022/10/25 22:21:12;;;;;;;29.35;23.33;;;23.00;62.50;;;;;;5186921;55;21037;-42
2022/10/25 22:26:15;;;;;;;28.38;22.40;;;23.00;62.50;;;;;;4744644;59;21140;-47
2022/10/25 22:31:17;;;;;;;29.55;24.25;;;23.00;62.50;;;;;;4839913;55;21006;-44
2022/10/25 22:36:20;;;;;;;27.62;22.42;;;23.00;62.50;;;;;;4745625;59;21046;-38
2022/10/25 22:41:23;;;;;;;29.83;22.55;;;23.00;62.50;;;;;;4828845;55;21022;-39
2022/10/25 22:46:33;;;;;;;27.58;21.90;;;23.00;62.50;;;;;;5150354;55;20978;-44
2022/10/25 22:51:34;;;;;;;28.95;21.67;;;23.00;62.60;;;;;;4895935;55;21121;-40
2022/10/25 22:56:36;;;;;;;29.20;23.02;;;23.00;62.50;;;;;;4873380;55;21050;-49
2022/10/25 23:01:37;;;;;;;28.50;22.10;;;23.00;62.50;;;;;;4756646;55;21487;-32
2022/10/25 23:06:39;;;;;;;25.65;21.35;;;23.00;62.50;;;;;;5096681;55;21054;-41
2022/10/25 23:11:40;;;;;;;29.50;22.25;;;23.00;62.50;;;;;;4790328;55;21532;-30
2022/10/25 23:16:41;;;;;;;27.08;21.12;;;23.10;62.50;;;;;;4897429;55;21006;-40
2022/10/25 23:21:41;;;;;;;27.80;21.55;;;22.90;62.40;;;;;;4764472;55;21137;-34
2022/10/25 23:26:42;;;;;;;26.80;21.65;;;23.00;62.40;;;;;;4826162;55;21095;-43
2022/10/25 23:31:43;;;;;;;29.25;22.42;;;23.00;62.50;;;;;;4909939;55;21037;-40
2022/10/25 23:36:44;;;;;;;27.98;22.33;;;22.90;63.10;;;;;;5039564;55;21162;-47
2022/10/25 23:41:44;;;;;;;25.50;20.83;;;22.90;62.40;;;;;;4948333;55;21070;-33
2022/10/25 23:46:45;;;;;;;27.35;21.67;;;23.00;62.50;;;;;;5231097;55;21069;-37
2022/10/25 23:51:46;;;;;;;26.83;20.95;;;22.90;62.40;;;;;;5031511;55;21562;-34
2022/10/25 23:56:47;;;;;;;28.42;21.92;;;22.90;62.40;;;;;;5230603;55;21007;-41
